Time;durP1;ratioP1;P1;durP2;ratioP2;P2;SDS_P1;SDS_P2;PMS_P1;PMS_P2;Temp;Humidity;BMP_temperature;BMP_pressure;BME280_temperature;BME280_humidity;BME280_pressure;Samples;Min_cycle;Max_cycle;Signal;HPM_P1;HPM_P2
2023/05/24 00:02:29;;;;;;;19.13;3.27;;;;;8.60;101897.00;;;;10162846;28;21586;-79
2023/05/24 00:07:31;;;;;;;13.40;2.80;;;;;8.50;101899.00;;;;10143307;28;20219;-81
2023/05/24 00:12:32;;;;;;;8.83;2.97;;;;;8.40;101894.00;;;;10164304;28;20859;-79
2023/05/24 00:17:39;;;;;;;8.57;2.97;;;;;8.40;101900.00;;;;10179715;28;20232;-79
2023/05/24 00:22:41;;;;;;;10.07;2.60;;;;;8.30;101903.00;;;;10159987;28;20237;-78
2023/05/24 00:27:42;;;;;;;13.77;3.23;;;;;8.20;101905.00;;;;10155570;28;20240;-77
2023/05/24 00:32:43;;;;;;;15.77;3.70;;;;;8.10;101897.00;;;;10171470;28;20228;-76
2023/05/24 00:37:45;;;;;;;12.07;2.87;;;;;8.10;101902.00;;;;10151865;28;20228;-77
2023/05/24 00:42:49;;;;;;;14.63;3.13;;;;;8.00;101897.00;;;;10156847;28;21428;-80
2023/05/24 00:47:51;;;;;;;9.13;2.67;;;;;8.00;101897.00;;;;10159466;28;20323;-80
2023/05/24 00:52:53;;;;;;;14.77;4.00;;;;;7.90;101899.00;;;;10184078;28;21663;-79
2023/05/24 00:57:56;;;;;;;11.63;3.00;;;;;7.90;101897.00;;;;10172738;28;20221;-78
2023/05/24 01:02:59;;;;;;;13.67;3.27;;;;;7.90;101898.00;;;;10172867;28;21839;-78
2023/05/24 01:08:18;;;;;;;12.23;3.07;;;;;7.90;101899.00;;;;10149111;28;21196;-75
2023/05/24 01:13:44;;;;;;;11.90;3.27;;;;;7.90;101899.00;;;;10155015;28;20340;-77
2023/05/24 01:18:53;;;;;;;12.33;3.23;;;;;7.80;101909.00;;;;10184111;28;21331;-79
2023/05/24 01:24:18;;;;;;;11.60;3.67;;;;;7.80;101905.00;;;;10172214;28;20237;-79
2023/05/24 01:29:20;;;;;;;14.77;4.50;;;;;7.70;101896.00;;;;10154713;28;20228;-76
2023/05/24 01:34:21;;;;;;;13.13;3.57;;;;;7.70;101903.00;;;;10176767;28;20638;-77
2023/05/24 01:39:25;;;;;;;10.80;3.70;;;;;7.60;101884.00;;;;10178849;28;20882;-77
2023/05/24 01:44:33;;;;;;;10.20;3.63;;;;;7.60;101889.00;;;;10173885;28;20690;-76
2023/05/24 01:49:39;;;;;;;12.67;3.43;;;;;7.50;101884.00;;;;10159662;28;20271;-76
2023/05/24 01:54:44;;;;;;;15.53;4.03;;;;;7.40;101878.00;;;;10156742;28;20280;-76
2023/05/24 01:59:46;;;;;;;11.17;3.97;;;;;7.30;101884.00;;;;10165556;28;20224;-80
2023/05/24 02:04:48;;;;;;;15.90;3.37;;;;;7.20;101864.00;;;;10155438;28;20616;-76
2023/05/24 02:09:49;;;;;;;12.13;4.07;;;;;7.00;101882.00;;;;10140280;28;20380;-76
2023/05/24 02:14:51;;;;;;;14.50;3.50;;;;;6.90;101883.00;;;;10180054;28;20224;-76
2023/05/24 02:19:52;;;;;;;15.23;3.40;;;;;6.80;101864.00;;;;10156539;28;20291;-76
2023/05/24 02:24:54;;;;;;;9.23;3.40;;;;;6.70;101862.00;;;;10166314;28;20241;-79
2023/05/24 02:29:56;;;;;;;12.30;4.60;;;;;6.70;101870.00;;;;10167637;28;20332;-79
2023/05/24 02:35:03;;;;;;;9.73;3.37;;;;;6.60;101870.00;;;;10158557;28;20892;-77
2023/05/24 02:40:05;;;;;;;14.87;3.10;;;;;6.60;101876.00;;;;10159666;28;20232;-75
2023/05/24 02:45:07;;;;;;;8.40;3.50;;;;;6.50;101864.00;;;;10171440;28;20239;-75
2023/05/24 02:50:09;;;;;;;12.80;3.70;;;;;6.40;101870.00;;;;10192857;28;20365;-79
2023/05/24 02:55:11;;;;;;;12.43;3.40;;;;;6.30;101873.00;;;;10155339;28;20244;-76
2023/05/24 03:00:13;;;;;;;13.43;4.33;;;;;6.20;101874.00;;;;10172840;28;20212;-76
2023/05/24 03:05:17;;;;;;;16.30;4.17;;;;;6.10;101870.00;;;;10157352;28;20292;-75
2023/05/24 03:10:19;;;;;;;9.27;3.27;;;;;6.10;101860.00;;;;10155203;28;20227;-76
2023/05/24 03:15:20;;;;;;;8.47;3.77;;;;;6.00;101860.00;;;;10172549;28;20217;-75
2023/05/24 03:20:23;;;;;;;8.93;2.97;;;;;6.00;101865.00;;;;10123109;28;20240;-77
2023/05/24 03:25:26;;;;;;;15.33;3.13;;;;;6.00;101872.00;;;;10137957;28;20325;-78
2023/05/24 03:30:28;;;;;;;11.60;3.67;;;;;6.00;101871.00;;;;10155880;28;21047;-76
2023/05/24 03:35:32;;;;;;;14.10;4.40;;;;;6.00;101884.00;;;;10145808;28;20354;-78
2023/05/24 03:40:33;;;;;;;14.90;4.03;;;;;5.90;101884.00;;;;10147224;28;20260;-75
2023/05/24 03:45:47;;;;;;;10.03;3.60;;;;;5.80;101878.00;;;;10153103;28;20279;-76
2023/05/24 03:50:48;;;;;;;11.07;4.00;;;;;5.80;101886.00;;;;10137892;28;20306;-77
2023/05/24 03:55:51;;;;;;;9.03;3.80;;;;;5.80;101886.00;;;;10140517;28;20838;-77
2023/05/24 04:00:53;;;;;;;11.33;3.50;;;;;5.90;101888.00;;;;10158193;28;20240;-77
2023/05/24 04:05:54;;;;;;;11.83;3.97;;;;;5.90;101890.00;;;;10140820;28;20774;-76
2023/05/24 04:10:56;;;;;;;16.20;4.00;;;;;6.00;101877.00;;;;10151419;28;21386;-75
2023/05/24 04:15:57;;;;;;;14.20;4.20;;;;;6.20;101889.00;;;;10168975;28;21888;-76
2023/05/24 04:20:59;;;;;;;12.17;5.03;;;;;6.30;101893.00;;;;10149285;28;20339;-76
2023/05/24 04:26:00;;;;;;;13.87;5.03;;;;;6.50;101891.00;;;;10153559;28;20319;-78
2023/05/24 04:31:05;;;;;;;12.70;4.30;;;;;6.60;101897.00;;;;10164866;28;20950;-78
2023/05/24 04:36:07;;;;;;;12.30;4.97;;;;;6.70;101899.00;;;;10153888;28;20216;-78
2023/05/24 04:41:09;;;;;;;12.23;4.53;;;;;6.90;101904.00;;;;10156542;28;20213;-78
2023/05/24 04:46:12;;;;;;;12.97;4.33;;;;;7.10;101915.00;;;;10151883;28;20735;-76
2023/05/24 04:51:13;;;;;;;14.23;5.03;;;;;7.30;101915.00;;;;10168481;28;20237;-76
2023/05/24 04:56:15;;;;;;;13.13;5.07;;;;;7.60;101924.00;;;;10165277;28;20260;-78
2023/05/24 05:01:17;;;;;;;15.10;5.43;;;;;8.00;101924.00;;;;10168556;28;20212;-77
2023/05/24 05:06:19;;;;;;;18.60;5.23;;;;;8.30;101927.00;;;;10152888;28;20248;-76
2023/05/24 05:11:20;;;;;;;17.07;5.40;;;;;8.70;101929.00;;;;10173344;28;20594;-79
2023/05/24 05:16:22;;;;;;;11.53;5.70;;;;;9.10;101921.00;;;;10185204;28;20212;-80
2023/05/24 05:21:23;;;;;;;19.53;5.00;;;;;9.50;101918.00;;;;10173146;28;20221;-78
2023/05/24 05:26:28;;;;;;;16.63;6.50;;;;;9.90;101910.00;;;;10162118;28;20233;-76
2023/05/24 05:31:30;;;;;;;18.50;5.97;;;;;10.30;101905.00;;;;10149887;28;20462;-76
2023/05/24 05:36:31;;;;;;;22.20;5.70;;;;;10.80;101924.00;;;;10154204;28;21707;-76
2023/05/24 05:41:32;;;;;;;15.37;5.77;;;;;11.40;101930.00;;;;10145774;28;20588;-79
2023/05/24 05:46:34;;;;;;;16.07;6.27;;;;;11.70;101925.00;;;;10178999;28;20241;-79
2023/05/24 05:51:37;;;;;;;11.77;6.47;;;;;12.10;101923.00;;;;10181366;28;20217;-77
2023/05/24 05:56:44;;;;;;;16.13;5.37;;;;;12.40;101918.00;;;;10151393;28;20912;-77
2023/05/24 06:01:47;;;;;;;19.83;6.03;;;;;12.70;101924.00;;;;10174683;28;20220;-76
2023/05/24 06:06:49;;;;;;;18.07;5.23;;;;;13.00;101913.00;;;;10122254;28;20232;-77
2023/05/24 06:11:51;;;;;;;19.37;5.27;;;;;13.60;101917.00;;;;10171973;28;20224;-78
2023/05/24 06:16:53;;;;;;;12.87;4.60;;;;;13.80;101932.00;;;;10159752;28;20932;-78
2023/05/24 06:21:56;;;;;;;15.03;5.00;;;;;14.20;101935.00;;;;10163766;28;20307;-78
2023/05/24 06:26:58;;;;;;;17.77;4.87;;;;;14.70;101940.00;;;;10165458;28;20290;-78
2023/05/24 06:32:00;;;;;;;15.77;5.27;;;;;14.80;101933.00;;;;10152489;28;20858;-78
2023/05/24 06:37:02;;;;;;;15.60;4.40;;;;;14.90;101935.00;;;;10164961;28;21388;-78
2023/05/24 06:42:04;;;;;;;14.70;5.00;;;;;15.50;101933.00;;;;10149863;28;20325;-78
2023/05/24 06:47:10;;;;;;;13.73;5.00;;;;;16.10;101938.00;;;;10163205;28;21500;-78
2023/05/24 06:52:12;;;;;;;14.13;4.05;;;;;16.40;101928.00;;;;10178074;28;20745;-76
2023/05/24 06:57:14;;;;;;;18.92;4.07;;;;;16.70;101942.00;;;;10128444;28;21615;-76
2023/05/24 07:02:16;;;;;;;10.43;3.33;;;;;17.00;101941.00;;;;10175017;28;20626;-77
2023/05/24 07:07:19;;;;;;;12.20;3.60;;;;;17.20;101942.00;;;;10155606;28;20236;-76
2023/05/24 07:12:22;;;;;;;12.50;3.65;;;;;18.00;101958.00;;;;10153774;28;20281;-75
2023/05/24 07:17:23;;;;;;;18.27;3.60;;;;;19.10;101957.00;;;;10174030;28;20244;-75
2023/05/24 07:22:27;;;;;;;16.00;3.90;;;;;18.90;101968.00;;;;10122321;28;20234;-76
2023/05/24 07:27:28;;;;;;;18.77;3.90;;;;;18.00;101979.00;;;;10157183;28;20420;-75
2023/05/24 07:32:31;;;;;;;10.90;3.22;;;;;17.80;101972.00;;;;10171312;28;20217;-76
2023/05/24 07:37:33;;;;;;;11.43;3.65;;;;;17.80;101970.00;;;;10138203;28;20961;-75
2023/05/24 07:42:34;;;;;;;18.55;3.67;;;;;17.70;101953.00;;;;10174407;28;20229;-77
2023/05/24 07:47:36;;;;;;;21.65;3.80;;;;;17.70;101963.00;;;;10171777;28;20217;-76
2023/05/24 07:52:38;;;;;;;16.13;4.30;;;;;18.30;101962.00;;;;10169836;28;20904;-75
2023/05/24 07:57:39;;;;;;;14.18;3.60;;;;;17.70;101970.00;;;;10169505;28;20295;-77
2023/05/24 08:02:42;;;;;;;14.73;4.70;;;;;17.70;101962.00;;;;10153674;28;20216;-77
2023/05/24 08:07:44;;;;;;;12.70;3.60;;;;;17.80;101968.00;;;;10171352;28;20228;-76
2023/05/24 08:12:46;;;;;;;11.70;3.28;;;;;17.70;101947.00;;;;10153417;28;21266;-75
2023/05/24 08:17:48;;;;;;;12.48;4.15;;;;;18.60;101941.00;;;;10151421;28;21717;-76
2023/05/24 08:22:49;;;;;;;12.05;3.08;;;;;19.70;101940.00;;;;10151801;28;20236;-77
2023/05/24 08:27:51;;;;;;;12.50;3.47;;;;;20.50;101944.00;;;;10166947;28;20225;-76
2023/05/24 08:32:52;;;;;;;12.65;3.85;;;;;21.30;101949.00;;;;10165899;28;20825;-77
2023/05/24 08:37:54;;;;;;;13.75;4.25;;;;;21.80;101953.00;;;;10152846;28;20230;-76
2023/05/24 08:42:59;;;;;;;12.50;3.72;;;;;21.30;101957.00;;;;10169555;28;20233;-77
2023/05/24 08:48:00;;;;;;;12.77;4.00;;;;;20.70;101951.00;;;;10173615;28;20216;-76
2023/05/24 08:53:05;;;;;;;12.55;3.45;;;;;20.80;101941.00;;;;10156618;28;20367;-77
2023/05/24 08:58:07;;;;;;;11.07;3.47;;;;;21.60;101938.00;;;;10155861;28;20201;-77
2023/05/24 09:03:10;;;;;;;12.50;4.13;;;;;21.90;101933.00;;;;10172967;28;20708;-76
2023/05/24 09:08:16;;;;;;;9.65;2.95;;;;;21.60;101926.00;;;;10168670;28;20212;-76
2023/05/24 09:13:18;;;;;;;7.82;3.08;;;;;22.00;101923.00;;;;10139516;28;20248;-77
2023/05/24 09:18:19;;;;;;;12.43;4.15;;;;;22.40;101930.00;;;;10170923;28;20209;-77
2023/05/24 09:23:22;;;;;;;11.35;3.53;;;;;22.60;101927.00;;;;10101436;28;21937;-76
2023/05/24 09:28:23;;;;;;;9.07;3.80;;;;;22.30;101928.00;;;;10168540;28;20294;-77
2023/05/24 09:33:31;;;;;;;10.23;4.00;;;;;23.70;101921.00;;;;10181896;28;20213;-82
2023/05/24 09:38:34;;;;;;;12.35;4.15;;;;;24.60;101924.00;;;;10170764;28;20375;-78
2023/05/24 09:43:47;;;;;;;11.30;3.80;;;;;23.90;101926.00;;;;10168039;28;20232;-79
2023/05/24 09:49:07;;;;;;;12.15;3.30;;;;;24.20;101915.00;;;;10175622;28;20214;-80
2023/05/24 09:54:08;;;;;;;9.40;3.83;;;;;24.20;101921.00;;;;10165554;28;20312;-81
2023/05/24 09:59:10;;;;;;;13.90;4.35;;;;;23.90;101916.00;;;;10174759;28;20306;-80
2023/05/24 10:04:12;;;;;;;10.43;3.83;;;;;24.60;101920.00;;;;10179008;28;20229;-80
2023/05/24 10:09:14;;;;;;;12.25;4.25;;;;;24.10;101909.00;;;;10160259;28;20281;-80
2023/05/24 10:14:16;;;;;;;11.50;4.18;;;;;25.10;101898.00;;;;10178674;28;20220;-79
2023/05/24 10:19:18;;;;;;;12.75;4.93;;;;;25.50;101905.00;;;;10178190;28;20644;-80
2023/05/24 10:24:24;;;;;;;14.07;5.30;;;;;25.70;101895.00;;;;10170544;28;20214;-80
2023/05/24 10:29:58;;;;;;;14.77;5.80;;;;;26.20;101896.00;;;;10152661;28;20213;-81
2023/05/24 10:35:00;;;;;;;16.15;6.22;;;;;26.20;101892.00;;;;10201569;28;20241;-80
2023/05/24 10:40:03;;;;;;;13.45;5.97;;;;;25.80;101904.00;;;;10206743;28;20217;-81
2023/05/24 10:45:23;;;;;;;12.77;5.72;;;;;25.80;101890.00;;;;10189588;28;20240;-80
2023/05/24 10:50:24;;;;;;;17.25;6.43;;;;;25.70;101885.00;;;;10206390;28;20247;-79
2023/05/24 10:55:25;;;;;;;13.70;5.95;;;;;26.60;101886.00;;;;10204741;28;20233;-80
2023/05/24 11:00:27;;;;;;;16.35;6.20;;;;;26.10;101886.00;;;;10192904;28;20217;-79
2023/05/24 11:05:51;;;;;;;12.52;4.57;;;;;24.30;101879.00;;;;10204450;28;20814;-81
2023/05/24 11:11:15;;;;;;;9.52;4.75;;;;;24.20;101859.00;;;;10208901;28;20248;-80
2023/05/24 11:16:36;;;;;;;17.00;6.57;;;;;24.30;101860.00;;;;10208846;28;20291;-82
2023/05/24 11:21:40;;;;;;;14.35;4.40;;;;;23.50;101856.00;;;;10212523;28;20212;-80
2023/05/24 11:26:42;;;;;;;14.65;4.63;;;;;23.70;101853.00;;;;10188835;28;21109;-79
2023/05/24 11:32:03;;;;;;;8.90;4.53;;;;;22.80;101862.00;;;;10196872;28;20221;-79
2023/05/24 11:37:04;;;;;;;11.68;3.97;;;;;22.70;101871.00;;;;10199387;28;20355;-81
2023/05/24 11:42:07;;;;;;;13.13;4.85;;;;;22.40;101863.00;;;;10177420;28;20296;-80
2023/05/24 11:47:08;;;;;;;13.55;7.38;;;;;21.60;101850.00;;;;10207351;28;20255;-80
2023/05/24 11:52:10;;;;;;;14.13;5.68;;;;;21.60;101855.00;;;;10180736;28;20251;-79
2023/05/24 11:57:11;;;;;;;12.60;4.85;;;;;21.90;101840.00;;;;10176732;28;20233;-79
2023/05/24 12:02:13;;;;;;;10.88;4.85;;;;;22.60;101843.00;;;;10191150;28;20329;-78
2023/05/24 12:07:17;;;;;;;12.05;5.93;;;;;22.50;101850.00;;;;10146039;28;20279;-80
2023/05/24 12:12:20;;;;;;;14.23;5.85;;;;;22.80;101852.00;;;;10176325;28;20264;-80
2023/05/24 12:17:35;;;;;;;11.20;5.07;;;;;24.30;101831.00;;;;10155014;28;20252;-80
2023/05/24 12:22:36;;;;;;;15.20;5.13;;;;;24.50;101825.00;;;;10173398;28;20997;-80
2023/05/24 12:27:46;;;;;;;10.35;5.35;;;;;23.30;101836.00;;;;10176234;28;20627;-79
2023/05/24 12:32:48;;;;;;;9.90;4.95;;;;;22.40;101831.00;;;;10167138;28;20444;-78
2023/05/24 12:37:56;;;;;;;10.52;4.63;;;;;22.50;101824.00;;;;10171389;28;20348;-81
2023/05/24 12:42:58;;;;;;;13.90;4.78;;;;;22.20;101832.00;;;;10187541;28;20213;-79
2023/05/24 12:48:01;;;;;;;14.68;5.40;;;;;21.90;101830.00;;;;10173631;28;20991;-80
2023/05/24 12:53:03;;;;;;;16.48;4.88;;;;;21.30;101830.00;;;;10175575;28;20288;-81
2023/05/24 12:58:06;;;;;;;14.35;4.72;;;;;20.80;101824.00;;;;10180048;28;20303;-79
2023/05/24 13:03:08;;;;;;;11.48;4.68;;;;;20.60;101823.00;;;;10162167;28;20224;-80
2023/05/24 13:08:09;;;;;;;10.60;4.30;;;;;20.70;101820.00;;;;10161976;28;20655;-80
2023/05/24 13:13:11;;;;;;;15.50;5.07;;;;;22.20;101794.00;;;;10137948;28;20489;-80
2023/05/24 13:18:12;;;;;;;14.52;4.57;;;;;22.90;101807.00;;;;10172701;28;20237;-79
2023/05/24 13:23:14;;;;;;;10.23;4.60;;;;;20.90;101795.00;;;;10123572;28;20315;-80
2023/05/24 13:28:15;;;;;;;11.23;4.28;;;;;20.00;101808.00;;;;10167112;28;21497;-80
2023/05/24 13:33:17;;;;;;;10.68;3.83;;;;;19.90;101805.00;;;;10171797;28;20259;-81
2023/05/24 13:38:22;;;;;;;11.88;3.97;;;;;19.60;101805.00;;;;10153389;28;20643;-80
2023/05/24 13:43:23;;;;;;;11.85;4.50;;;;;19.40;101800.00;;;;10170063;28;20364;-80
2023/05/24 13:48:24;;;;;;;15.43;4.90;;;;;19.30;101798.00;;;;10150449;28;20403;-81
2023/05/24 13:53:26;;;;;;;11.73;4.57;;;;;19.30;101798.00;;;;10152932;28;20806;-80
2023/05/24 13:58:28;;;;;;;10.68;3.40;;;;;19.30;101798.00;;;;10141605;28;20256;-79
2023/05/24 14:03:29;;;;;;;8.85;3.40;;;;;19.90;101806.00;;;;10162021;28;21344;-78
2023/05/24 14:08:30;;;;;;;11.02;3.05;;;;;20.60;101793.00;;;;10143525;28;20233;-79
2023/05/24 14:13:32;;;;;;;8.05;3.47;;;;;21.00;101802.00;;;;10167100;28;20644;-79
2023/05/24 14:18:53;;;;;;;8.25;3.28;;;;;20.80;101798.00;;;;10171508;28;20838;-78
2023/05/24 14:23:54;;;;;;;13.48;3.28;;;;;20.20;101802.00;;;;10151150;28;20307;-78
2023/05/24 14:28:56;;;;;;;10.35;3.97;;;;;19.90;101806.00;;;;10151047;28;20220;-78
2023/05/24 14:33:57;;;;;;;12.23;3.72;;;;;19.90;101808.00;;;;10128426;28;20232;-78
2023/05/24 14:38:59;;;;;;;11.57;4.13;;;;;20.00;101810.00;;;;10177961;28;20221;-78
2023/05/24 14:44:00;;;;;;;13.25;3.85;;;;;19.90;101808.00;;;;10161483;28;20384;-79
2023/05/24 14:49:03;;;;;;;10.32;3.80;;;;;19.60;101804.00;;;;10171393;28;20304;-79
2023/05/24 14:54:04;;;;;;;9.43;3.55;;;;;19.40;101801.00;;;;10163971;28;20241;-78
2023/05/24 14:59:06;;;;;;;9.52;3.72;;;;;19.40;101804.00;;;;10163540;28;20220;-80
2023/05/24 15:04:07;;;;;;;11.57;4.18;;;;;19.60;101804.00;;;;10182919;28;20297;-78
2023/05/24 15:09:10;;;;;;;13.20;3.63;;;;;19.70;101808.00;;;;10165107;28;20287;-79
2023/05/24 15:14:11;;;;;;;10.98;3.88;;;;;19.50;101812.00;;;;10180985;28;20268;-79
2023/05/24 15:19:13;;;;;;;12.75;4.70;;;;;19.60;101811.00;;;;10180749;28;20224;-78
2023/05/24 15:24:14;;;;;;;9.93;3.47;;;;;19.80;101806.00;;;;10179828;28;20487;-78
2023/05/24 15:29:16;;;;;;;10.68;3.90;;;;;19.90;101803.00;;;;10159780;28;20711;-79
2023/05/24 15:34:18;;;;;;;9.48;3.80;;;;;19.90;101806.00;;;;10158468;28;20901;-79
2023/05/24 15:39:20;;;;;;;11.32;4.22;;;;;20.10;101803.00;;;;10175674;28;20223;-77
2023/05/24 15:44:21;;;;;;;9.45;4.03;;;;;20.40;101808.00;;;;10159157;28;20213;-78
2023/05/24 15:49:23;;;;;;;11.07;4.07;;;;;20.50;101798.00;;;;10160203;28;20300;-79
2023/05/24 15:54:24;;;;;;;14.10;4.35;;;;;21.00;101783.00;;;;10160592;28;20267;-79
2023/05/24 15:59:26;;;;;;;13.30;4.53;;;;;20.90;101787.00;;;;10176386;28;20236;-77
2023/05/24 16:04:27;;;;;;;14.60;3.58;;;;;21.10;101780.00;;;;10146837;28;20236;-79
2023/05/24 16:09:28;;;;;;;13.32;3.95;;;;;21.20;101786.00;;;;10183446;28;21101;-78
2023/05/24 16:14:30;;;;;;;10.30;3.47;;;;;21.20;101785.00;;;;10184387;28;20955;-79
2023/05/24 16:19:31;;;;;;;10.65;3.70;;;;;21.20;101780.00;;;;10178635;28;21363;-78
2023/05/24 16:24:33;;;;;;;13.82;4.32;;;;;20.80;101772.00;;;;10159332;28;20759;-78
2023/05/24 16:29:34;;;;;;;15.40;4.28;;;;;20.80;101767.00;;;;10172932;28;20216;-78
2023/05/24 16:34:37;;;;;;;12.95;4.00;;;;;20.60;101768.00;;;;10154861;28;20537;-78
2023/05/24 16:39:56;;;;;;;11.20;4.32;;;;;19.90;101766.00;;;;10171991;28;20221;-78
2023/05/24 16:44:58;;;;;;;10.60;4.18;;;;;19.40;101758.00;;;;10171567;28;20220;-78
2023/05/24 16:49:59;;;;;;;17.10;4.57;;;;;19.50;101763.00;;;;10136293;28;20218;-78
2023/05/24 16:55:00;;;;;;;11.95;4.38;;;;;19.70;101753.00;;;;10171403;28;20237;-78
2023/05/24 17:00:04;;;;;;;10.65;4.60;;;;;19.30;101760.00;;;;10174989;28;20221;-78
2023/05/24 17:05:06;;;;;;;13.55;5.32;;;;;18.90;101748.00;;;;10160944;28;20249;-77
2023/05/24 17:10:08;;;;;;;14.73;5.40;;;;;18.80;101754.00;;;;10189318;28;20220;-78
2023/05/24 17:15:10;;;;;;;16.77;5.05;;;;;18.90;101750.00;;;;10170618;28;20260;-78
2023/05/24 17:20:12;;;;;;;14.73;5.00;;;;;18.90;101736.00;;;;10187334;28;20221;-77
2023/05/24 17:25:13;;;;;;;15.07;4.85;;;;;19.30;101743.00;;;;10185441;28;20222;-78
2023/05/24 17:30:15;;;;;;;14.15;5.20;;;;;19.60;101748.00;;;;10184373;28;20432;-78
2023/05/24 17:35:16;;;;;;;10.93;5.07;;;;;19.30;101749.00;;;;10169938;28;20309;-78
2023/05/24 17:40:17;;;;;;;11.32;4.82;;;;;18.70;101746.00;;;;10176977;28;20205;-79
2023/05/24 17:45:19;;;;;;;11.82;4.70;;;;;18.30;101749.00;;;;10173328;28;20322;-78
2023/05/24 17:50:20;;;;;;;9.65;4.80;;;;;17.90;101749.00;;;;10172208;28;20208;-78
2023/05/24 17:55:21;;;;;;;13.70;4.53;;;;;17.60;101750.00;;;;10157411;28;20272;-78
2023/05/24 18:00:23;;;;;;;13.57;5.10;;;;;17.40;101758.00;;;;10186655;28;20755;-79
2023/05/24 18:05:24;;;;;;;11.85;5.00;;;;;17.20;101771.00;;;;10169669;28;20216;-79
2023/05/24 18:10:26;;;;;;;13.63;4.75;;;;;17.00;101771.00;;;;10172758;28;20221;-78
2023/05/24 18:15:27;;;;;;;12.93;5.05;;;;;16.80;101776.00;;;;10187299;28;20689;-78
2023/05/24 18:20:29;;;;;;;14.32;5.63;;;;;16.60;101772.00;;;;10189805;28;20227;-77
2023/05/24 18:25:30;;;;;;;12.90;5.35;;;;;16.60;101778.00;;;;10152477;28;20221;-78
2023/05/24 18:30:31;;;;;;;13.65;6.05;;;;;16.40;101768.00;;;;10193801;28;20438;-78
2023/05/24 18:35:33;;;;;;;13.48;5.15;;;;;16.20;101774.00;;;;10193664;28;22003;-77
2023/05/24 18:40:34;;;;;;;15.30;4.82;;;;;15.90;101779.00;;;;10169097;28;20853;-77
2023/05/24 18:45:36;;;;;;;17.38;5.50;;;;;15.70;101776.00;;;;10174156;28;20220;-77
2023/05/24 18:50:37;;;;;;;17.30;4.85;;;;;15.50;101782.00;;;;10177885;28;20440;-78
2023/05/24 18:55:39;;;;;;;14.45;4.72;;;;;15.40;101785.00;;;;10178303;28;20417;-78
2023/05/24 19:00:40;;;;;;;12.30;4.40;;;;;15.20;101791.00;;;;10188345;28;20210;-78
2023/05/24 19:05:42;;;;;;;11.57;4.63;;;;;15.20;101800.00;;;;10155577;28;20232;-77
2023/05/24 19:10:45;;;;;;;11.27;4.53;;;;;15.20;101800.00;;;;10169799;28;20275;-76
2023/05/24 19:15:46;;;;;;;14.13;4.68;;;;;15.20;101802.00;;;;10161530;28;20320;-78
2023/05/24 19:20:47;;;;;;;12.35;4.15;;;;;15.10;101803.00;;;;10187685;28;20222;-77
2023/05/24 19:25:49;;;;;;;8.93;3.78;;;;;15.10;101815.00;;;;10156839;28;20227;-78
2023/05/24 19:30:51;;;;;;;9.97;3.67;;;;;15.10;101815.00;;;;10188676;28;20217;-78
2023/05/24 19:35:52;;;;;;;9.07;3.73;;;;;15.00;101819.00;;;;10199226;28;20349;-78
2023/05/24 19:40:53;;;;;;;12.35;3.88;;;;;15.00;101815.00;;;;10198380;28;20221;-78
2023/05/24 19:45:56;;;;;;;11.43;3.47;;;;;14.90;101822.00;;;;10169592;28;20217;-78
2023/05/24 19:50:58;;;;;;;11.37;3.97;;;;;14.80;101823.00;;;;10170735;28;20228;-78
2023/05/24 19:55:59;;;;;;;13.27;3.83;;;;;14.70;101826.00;;;;10175575;28;20264;-78
2023/05/24 20:01:01;;;;;;;11.13;4.10;;;;;14.50;101824.00;;;;10189653;28;20209;-78
2023/05/24 20:06:02;;;;;;;9.80;3.73;;;;;14.30;101845.00;;;;10176171;28;20228;-78
2023/05/24 20:11:04;;;;;;;13.13;3.63;;;;;14.10;101842.00;;;;10193778;28;21355;-78
2023/05/24 20:16:06;;;;;;;12.30;3.57;;;;;13.90;101845.00;;;;10174388;28;21320;-78
2023/05/24 20:21:07;;;;;;;10.07;3.67;;;;;13.80;101851.00;;;;10161196;28;20330;-78
2023/05/24 20:26:09;;;;;;;16.20;3.77;;;;;13.70;101846.00;;;;10176456;28;20342;-78
2023/05/24 20:31:10;;;;;;;7.07;3.13;;;;;13.50;101848.00;;;;10191393;28;20232;-78
2023/05/24 20:36:13;;;;;;;10.67;3.10;;;;;13.40;101854.00;;;;10172284;28;20931;-78
2023/05/24 20:41:15;;;;;;;8.73;3.50;;;;;13.30;101863.00;;;;10189877;28;20316;-78
2023/05/24 20:46:17;;;;;;;8.77;3.90;;;;;13.20;101861.00;;;;10178298;28;20232;-79
2023/05/24 20:51:18;;;;;;;10.07;3.77;;;;;13.20;101870.00;;;;10176124;28;20448;-78
2023/05/24 20:56:21;;;;;;;11.40;3.10;;;;;13.20;101874.00;;;;10151112;28;21832;-78
2023/05/24 21:01:23;;;;;;;7.97;3.20;;;;;13.20;101881.00;;;;10191459;28;20255;-78
2023/05/24 21:06:24;;;;;;;7.80;3.30;;;;;13.00;101881.00;;;;10191929;28;20590;-77
2023/05/24 21:11:26;;;;;;;9.50;3.50;;;;;12.80;101890.00;;;;10190131;28;20340;-78
2023/05/24 21:16:28;;;;;;;10.63;3.43;;;;;12.70;101897.00;;;;10172427;28;20682;-78
2023/05/24 21:21:29;;;;;;;11.53;3.30;;;;;12.50;101899.00;;;;10174802;28;20307;-77
2023/05/24 21:26:31;;;;;;;9.93;3.43;;;;;12.30;101909.00;;;;10154455;28;20347;-78
2023/05/24 21:31:34;;;;;;;10.13;3.97;;;;;12.20;101912.00;;;;10165004;28;20248;-78
2023/05/24 21:36:36;;;;;;;7.23;2.97;;;;;12.10;101916.00;;;;10184299;28;21228;-78
2023/05/24 21:41:37;;;;;;;9.00;3.17;;;;;12.00;101918.00;;;;10165965;28;20223;-78
2023/05/24 21:46:39;;;;;;;8.97;3.07;;;;;11.80;101925.00;;;;10158464;28;21079;-78
2023/05/24 21:51:40;;;;;;;10.93;3.60;;;;;11.70;101922.00;;;;10181269;28;20217;-78
2023/05/24 21:56:42;;;;;;;8.93;3.87;;;;;11.60;101935.00;;;;10184205;28;20255;-77
2023/05/24 22:01:43;;;;;;;9.13;3.97;;;;;11.50;101930.00;;;;10198605;28;20225;-78
2023/05/24 22:06:44;;;;;;;13.17;4.00;;;;;11.30;101940.00;;;;10192946;28;20245;-77
2023/05/24 22:11:46;;;;;;;13.87;3.47;;;;;11.20;101945.00;;;;10177783;28;20221;-77
2023/05/24 22:16:48;;;;;;;8.40;3.43;;;;;11.10;101946.00;;;;10179168;28;20236;-77
2023/05/24 22:21:50;;;;;;;10.10;4.13;;;;;11.00;101945.00;;;;10167254;28;20216;-77
2023/05/24 22:26:52;;;;;;;7.87;3.37;;;;;10.90;101951.00;;;;10154547;28;20319;-77
2023/05/24 22:31:56;;;;;;;6.17;3.53;;;;;10.80;101950.00;;;;10151759;28;20786;-77
2023/05/24 22:36:58;;;;;;;10.23;3.50;;;;;10.80;101956.00;;;;10153357;28;20209;-77
2023/05/24 22:42:00;;;;;;;9.50;3.53;;;;;10.70;101952.00;;;;10155337;28;20300;-77
2023/05/24 22:47:02;;;;;;;9.17;3.70;;;;;10.70;101955.00;;;;10172856;28;20237;-77
2023/05/24 22:52:03;;;;;;;9.87;3.80;;;;;10.60;101958.00;;;;10189724;28;20241;-77
2023/05/24 22:57:05;;;;;;;11.83;4.10;;;;;10.60;101959.00;;;;10166871;28;20252;-77
2023/05/24 23:02:06;;;;;;;9.67;4.00;;;;;10.60;101952.00;;;;10148308;28;20225;-77
2023/05/24 23:07:08;;;;;;;8.33;4.07;;;;;10.50;101962.00;;;;10182151;28;20798;-77
2023/05/24 23:12:10;;;;;;;10.13;4.10;;;;;10.60;101973.00;;;;10186279;28;20926;-77
2023/05/24 23:17:18;;;;;;;13.63;4.10;;;;;10.50;101964.00;;;;10187033;28;20932;-77
2023/05/24 23:22:22;;;;;;;10.27;4.27;;;;;10.50;101958.00;;;;10151063;28;20563;-77
2023/05/24 23:27:23;;;;;;;10.57;4.03;;;;;10.40;101962.00;;;;10178199;28;20236;-77
2023/05/24 23:32:24;;;;;;;15.67;4.23;;;;;10.40;101966.00;;;;10176241;28;20227;-77
2023/05/24 23:37:26;;;;;;;11.70;4.20;;;;;10.40;101953.00;;;;10154751;28;20213;-77
2023/05/24 23:42:27;;;;;;;15.63;4.53;;;;;10.40;101954.00;;;;10167547;28;21099;-77
2023/05/24 23:47:29;;;;;;;11.97;4.63;;;;;10.40;101962.00;;;;10162245;28;20237;-77
2023/05/24 23:52:30;;;;;;;9.40;4.77;;;;;10.30;101962.00;;;;10161362;28;20209;-77
2023/05/24 23:57:32;;;;;;;11.47;4.60;;;;;10.20;101967.00;;;;10165919;28;20244;-77
